Latest Weather Observations for Blackwater Airport

IDQ60801

Issued at 12:32 pm EST Sunday 17 December 2017 (issued every 30 minutes, with the page automatically refreshed every 10 minutes)

About weather observations | Map of weather stations | Latest weather observations for QLD | Other Formats
Station Details ID: 035134 Name: BLACKWATER AIRPORT Lat: -23.60 Lon: 148.81 Height: 192.95 m
Data from the previous 72 hours. | See also: Recent months at Blackwater Airport
Date/Time
EST
Temp
°C
App
Temp
°C
Dew
Point
°C
Rel
Hum
%
Delta-T
°C
Wind Press
QNH
hPa
Press
MSL
hPa
Rain since
9am
mm
Dir  Spd
km/h
Gust
km/h
Spd
kts
Gust
kts
17/12:30pm 31.8 30.4 13.5 32 11.1 ENE 13 24 7 13 1013.2 1012.0 0.0
17/12:00pm 31.7 29.5 14.4 35 10.6 E 19 32 10 17 1013.7 1012.5 0.0
17/11:30am 31.0 28.7 14.6 37 10.1 ENE 20 35 11 19 1014.5 1013.2 0.0
17/11:00am 29.7 28.4 15.8 43 8.7 E 17 24 9 13 1015.0 1013.7 0.0
17/10:30am 30.2 28.0 15.9 42 8.9 ENE 22 33 12 18 1015.4 1014.1 0.0
17/10:00am 29.1 27.3 16.0 45 8.2 E 20 30 11 16 1015.6 1014.3 0.0
17/09:30am 28.6 27.3 17.2 50 7.2 ENE 20 32 11 17 1015.9 1014.6 0.0
17/09:00am 27.9 26.8 17.4 52 6.7 ENE 19 26 10 14 1015.9 1014.6 0.0
17/08:30am 27.2 25.8 17.1 54 6.4 E 20 28 11 15 1016.0 1014.7 0.0
17/08:00am 25.5 25.7 17.7 62 4.9 NE 13 20 7 11 1016.0 1014.7 0.0
17/07:30am 24.2 25.5 18.4 70 3.7 ENE 9 15 5 8 1015.9 1014.6 0.0
17/07:00am 24.1 25.5 18.7 72 3.4 ESE 9 13 5 7 1015.6 1014.3 0.0
17/06:30am 23.8 25.2 18.7 73 3.3 ESE 9 15 5 8 1015.4 1014.1 0.0
17/06:00am 22.5 23.3 19.1 81 2.2 E 13 15 7 8 1014.9 1013.6 0.0
17/05:30am 21.5 23.6 18.1 81 2.1 ESE 4 7 2 4 1014.4 1013.1 0.0
17/05:00am 22.2 23.9 18.6 80 2.3 E 7 17 4 9 1013.7 1012.5 0.0
17/04:30am 22.5 21.1 18.7 79 2.4 NE 24 32 13 17 1013.4 1012.2 0.0
17/04:00am 21.8 22.3 18.4 81 2.1 NE 13 19 7 10 1013.2 1012.0 0.0
17/03:30am 21.8 23.5 18.0 79 2.4 NNE 6 13 3 7 1013.1 1011.9 0.0
17/03:00am 22.2 23.7 18.0 77 2.6 NE 7 13 4 7 1013.2 1012.0 0.0
17/02:30am 22.6 23.0 18.2 76 2.8 NE 13 20 7 11 1013.2 1012.0 0.0
17/02:00am 22.5 22.3 17.6 74 3.1 NE 15 22 8 12 1013.6 1012.4 0.0
17/01:30am 22.7 22.6 16.9 70 3.6 NE 13 19 7 10 1013.8 1012.6 0.0
17/01:00am 23.2 21.8 16.5 66 4.1 ENE 19 26 10 14 1013.8 1012.6 0.0
17/12:30am 23.5 22.3 16.1 63 4.5 ENE 17 24 9 13 1014.1 1012.8 0.0
17/12:00am 24.1 23.2 15.9 60 5.0 ENE 15 20 8 11 1014.3 1013.0 0.0
 
Date/Time
EST
Temp
°C
App
Temp
°C
Dew
Point
°C
Rel
Hum
%
Delta-T
°C
Wind Press
QNH
hPa
Press
MSL
hPa
Rain since
9am
mm
Dir  Spd
km/h
Gust
km/h
Spd
kts
Gust
kts
16/11:30pm 24.2 23.3 15.9 59 5.1 NE 15 20 8 11 1014.2 1012.9 0.0
16/11:00pm 24.7 23.5 16.2 59 5.2 NE 17 24 9 13 1013.9 1012.7 0.0
16/10:30pm 25.4 24.0 16.5 58 5.5 NE 19 26 10 14 1014.1 1012.8 0.0
16/10:00pm 25.9 24.6 16.7 57 5.7 NE 19 30 10 16 1013.9 1012.7 0.0
16/09:30pm 26.3 24.8 16.8 56 5.9 ENE 20 28 11 15 1013.8 1012.6 0.0
16/09:00pm 27.2 24.3 17.1 54 6.4 ENE 28 37 15 20 1013.5 1012.3 0.0
16/08:30pm 27.3 25.1 14.3 45 7.8 ENE 19 26 10 14 1013.0 1011.8 0.0
16/08:00pm 28.3 26.8 11.8 36 9.6 ESE 11 13 6 7 1012.4 1011.2 0.0
16/07:30pm 29.0 27.5 12.0 35 10.0 SE 11 15 6 8 1012.2 1011.0 0.0
16/07:00pm 30.1 28.3 12.1 33 10.6 ESE 13 17 7 9 1012.0 1010.8 0.0
16/06:30pm 30.9 28.4 12.3 32 11.0 E 17 20 9 11 1011.9 1010.6 0.0
16/06:00pm 31.9 29.3 13.2 32 11.3 E 19 24 10 13 1011.5 1010.2 0.0
16/05:30pm 32.6 29.9 12.8 30 11.9 E 19 26 10 14 1011.1 1009.8 0.0
16/05:00pm 33.2 30.7 11.1 26 13.0 E 15 22 8 12 1010.9 1009.6 0.0
16/04:30pm 33.7 31.4 10.3 24 13.6 E 13 28 7 15 1010.9 1009.6 0.0
16/04:00pm 33.4 31.3 11.3 26 13.1 ESE 13 22 7 12 1011.0 1009.7 0.0
16/03:30pm 34.0 31.2 11.2 25 13.5 ENE 17 28 9 15 1011.0 1009.7 0.0
16/03:00pm 33.0 30.6 11.5 27 12.7 E 15 22 8 12 1011.4 1010.1 0.0
16/02:30pm 32.6 30.7 11.7 28 12.4 E 13 24 7 13 1011.8 1010.5 0.0
16/02:00pm 33.1 30.1 12.1 27 12.5 ESE 19 26 10 14 1012.3 1011.1 0.0
16/01:30pm 32.0 29.3 11.7 28 12.0 ESE 17 28 9 15 1012.7 1011.5 0.0
16/01:00pm 33.0 31.3 13.6 31 11.8 SE 15 26 8 14 1013.1 1011.9 0.0
16/12:30pm 31.3 29.2 13.6 34 10.7 E 17 28 9 15 1013.6 1012.4 0.0
16/12:00pm 30.9 29.4 14.1 36 10.2 NE 15 24 8 13 1014.2 1012.9 0.0
16/11:30am 30.4 29.1 14.9 39 9.6 E 15 28 8 15 1014.7 1013.4 0.0
16/11:00am 31.1 29.5 15.1 38 9.9 E 17 26 9 14 1015.2 1013.9 0.0
16/10:30am 29.6 28.1 15.3 41 8.8 E 17 30 9 16 1015.6 1014.3 0.0
16/10:00am 29.5 27.7 14.5 40 9.1 E 17 26 9 14 1015.8 1014.5 0.0
16/09:30am 28.7 26.9 15.9 45 8.0 ENE 20 30 11 16 1015.8 1014.5 0.0
16/09:00am 27.7 26.3 16.6 50 6.9 E 19 30 10 16 1015.9 1014.6 0.0
16/08:30am 27.1 26.0 17.8 56 5.9 E 20 28 11 15 1015.7 1014.4 0.0
16/08:00am 26.5 26.0 17.8 58 5.5 ENE 17 24 9 13 1015.5 1014.2 0.0
16/07:30am 25.7 25.3 18.1 63 4.8 E 17 28 9 15 1015.5 1014.2 0.0
16/07:00am 25.3 25.1 18.5 66 4.3 ENE 17 22 9 12 1015.3 1014.0 0.0
16/06:30am 24.0 24.0 18.9 73 3.3 E 17 22 9 12 1014.9 1013.6 0.0
16/06:00am 22.7 24.6 18.9 79 2.4 ENE 7 11 4 6 1014.5 1013.2 0.0
16/05:30am 21.4 23.4 18.8 85 1.6 NNE 6 9 3 5 1014.1 1012.8 0.0
16/05:00am 21.2 21.8 18.6 85 1.6 NE 13 17 7 9 1013.6 1012.4 0.0
16/04:30am 21.3 22.6 18.5 84 1.8 ENE 9 15 5 8 1013.1 1011.9 0.0
16/04:00am 21.4 21.6 18.6 84 1.8 NE 15 20 8 11 1012.6 1011.4 0.0
16/03:30am 21.4 21.5 18.4 83 1.9 NE 15 20 8 11 1012.4 1011.2 0.0
16/03:00am 21.9 21.3 18.5 81 2.1 ENE 19 24 10 13 1012.4 1011.2 0.0
16/02:30am 21.7 22.3 18.5 82 2.0 NE 13 20 7 11 1012.5 1011.3 0.0
16/02:00am 22.2 22.6 18.2 78 2.5 ENE 13 17 7 9 1012.5 1011.3 0.0
16/01:30am 22.7 22.7 18.0 75 3.0 ENE 15 20 8 11 1012.5 1011.3 0.0
16/01:00am 23.1 23.4 18.0 73 3.2 ENE 13 19 7 10 1012.9 1011.7 0.0
16/12:30am 23.4 22.7 17.4 69 3.7 ENE 17 28 9 15 1012.8 1011.6 0.0
16/12:00am 23.9 22.8 17.4 67 4.1 ENE 19 26 10 14 1012.9 1011.7 0.0
 
Date/Time
EST
Temp
°C
App
Temp
°C
Dew
Point
°C
Rel
Hum
%
Delta-T
°C
Wind Press
QNH
hPa
Press
MSL
hPa
Rain since
9am
mm
Dir  Spd
km/h
Gust
km/h
Spd
kts
Gust
kts
15/11:30pm 24.3 23.0 16.8 63 4.7 ENE 19 28 10 15 1013.0 1011.8 0.0
15/11:00pm 24.9 23.1 16.1 58 5.4 ENE 20 26 11 14 1013.1 1011.9 0.0
15/10:30pm 25.1 23.3 16.0 57 5.6 ENE 20 28 11 15 1013.0 1011.8 0.0
15/10:00pm 25.8 23.5 15.8 54 6.1 ENE 22 30 12 16 1012.9 1011.7 0.0
15/09:30pm 26.3 24.3 15.4 51 6.7 ENE 20 28 11 15 1012.8 1011.6 0.0
15/09:00pm 26.8 24.9 15.2 49 7.1 ENE 19 26 10 14 1012.1 1010.9 0.0
15/08:30pm 27.4 25.8 15.1 47 7.5 ENE 17 24 9 13 1011.7 1010.4 0.0
15/08:00pm 27.9 26.3 13.8 42 8.5 ENE 15 20 8 11 1011.4 1010.1 0.0
15/07:30pm 28.1 26.5 12.8 38 9.0 E 13 15 7 8 1010.9 1009.6 0.0
15/07:00pm 29.3 27.7 12.7 36 9.9 ENE 13 19 7 10 1010.5 1009.2 0.0
15/06:30pm 30.8 28.8 12.7 33 10.8 ENE 15 20 8 11 1010.2 1008.9 0.0
15/06:00pm 31.8 29.8 12.6 31 11.5 E 15 22 8 12 1009.7 1008.4 0.0
15/05:30pm 32.5 30.1 12.7 30 11.9 E 17 24 9 13 1009.4 1008.1 0.0
15/05:00pm 33.0 31.2 12.1 28 12.5 ENE 13 24 7 13 1009.1 1007.8 0.0
15/04:30pm 32.7 29.9 11.3 27 12.6 E 17 26 9 14 1009.0 1007.7 0.0
15/04:00pm 33.3 31.4 12.9 29 12.4 E 15 28 8 15 1008.9 1007.6 0.0
15/03:30pm 33.3 29.8 12.3 28 12.6 E 22 35 12 19 1009.0 1007.7 0.0
15/03:00pm 33.2 29.4 11.1 26 13.0 E 22 33 12 18 1009.3 1008.0 0.0
15/02:30pm 34.0 31.7 12.9 28 12.8 ENE 17 30 9 16 1009.4 1008.1 0.0
15/02:00pm 32.7 30.4 12.9 30 12.0 E 17 33 9 18 1009.7 1008.4 0.0
15/01:30pm 32.3 29.1 12.0 29 12.1 E 20 32 11 17 1010.1 1008.8 0.0
15/01:00pm 31.4 31.0 14.1 35 10.6 SSW 9 15 5 8 1010.5 1009.2 0.0
15/12:30pm 31.3 30.2 14.4 35 10.4 ESE 13 28 7 15 1010.9 1009.6 0.0
15/12:00pm 30.8 29.6 14.0 36 10.2 E 13 22 7 12 1011.3 1010.0 0.0
15/11:30am 29.6 28.9 14.2 39 9.4 SE 11 24 6 13 1011.9 1010.6 0.0
15/11:00am 29.2 29.0 14.6 41 8.9 WNW 9 15 5 8 1012.2 1011.0 0.0
15/10:30am 28.7 28.7 15.2 43 8.3 NNE 9 20 5 11 1012.6 1011.4 0.0
15/10:00am 29.2 28.2 14.6 41 8.9 NE 13 20 7 11 1012.8 1011.6 0.0
15/09:30am 27.8 27.3 15.8 48 7.4 NE 13 20 7 11 1013.2 1012.0 0.0
15/09:00am 27.3 26.8 16.9 53 6.5 E 15 20 8 11 1013.3 1012.1 0.0
15/08:30am 26.6 25.9 17.4 57 5.8 ENE 17 24 9 13 1013.5 1012.3 0.0
15/08:00am 25.5 25.2 17.4 61 5.1 ENE 15 20 8 11 1013.7 1012.5 0.0
15/07:30am 24.8 24.0 18.0 66 4.3 NE 19 24 10 13 1013.6 1012.4 0.0
15/07:00am 24.4 25.1 18.8 71 3.6 ENE 13 20 7 11 1013.5 1012.3 0.0
15/06:30am 23.5 24.7 19.0 76 2.9 ENE 11 17 6 9 1013.3 1012.1 0.0
15/06:00am 22.2 23.8 19.2 83 1.9 ENE 9 15 5 8 1012.9 1011.7 0.0
15/05:30am 20.0 20.7 18.0 88 1.2 ENE 11 11 6 6 1012.4 1011.2 0.0
15/05:00am 19.8 20.2 18.1 90 1.1 ENE 13 15 7 8 1012.0 1010.8 0.0
15/04:30am 20.0 21.0 17.8 87 1.4 NE 9 13 5 7 1011.6 1010.3 0.0
15/04:00am 20.1 21.2 18.1 88 1.2 NE 9 11 5 6 1011.3 1010.0 0.0
15/03:30am 20.2 21.2 17.8 86 1.5 NNE 9 11 5 6 1010.9 1009.6 0.0
15/03:00am 20.4 21.2 17.4 83 1.9 NE 9 11 5 6 1010.7 1009.4 0.0
15/02:30am 20.9 21.5 17.7 82 2.0 ENE 11 17 6 9 1010.6 1009.3 0.0
15/02:00am 20.6 20.9 17.0 80 2.2 NE 11 17 6 9 1010.7 1009.4 0.0
15/01:30am 21.2 20.2 16.6 75 2.8 ENE 17 22 9 12 1011.0 1009.7 0.0
15/01:00am 21.4 19.8 15.0 67 3.8 ENE 17 22 9 12 1011.2 1009.9 0.0
15/12:30am 21.9 20.3 15.0 65 4.1 NE 17 20 9 11 1011.5 1010.2 0.0
15/12:00am 22.2 21.5 15.3 65 4.1 NE 13 15 7 8 1011.8 1010.5 0.0
 
Date/Time
EST
Temp
°C
App
Temp
°C
Dew
Point
°C
Rel
Hum
%
Delta-T
°C
Wind Press
QNH
hPa
Press
MSL
hPa
Rain since
9am
mm
Dir  Spd
km/h
Gust
km/h
Spd
kts
Gust
kts
14/11:30pm 23.3 22.0 15.9 63 4.5 NE 17 24 9 13 1011.8 1010.5 0.0
14/11:00pm 24.4 23.0 16.6 61 4.8 NE 19 30 10 16 1011.9 1010.6 0.0
14/10:30pm 24.4 24.7 18.8 71 3.6 NE 15 20 8 11 1012.0 1010.8 0.0
14/10:00pm 25.1 25.1 19.0 69 3.9 NE 17 26 9 14 1012.0 1010.8 0.0
14/09:30pm 25.8 25.1 18.2 63 4.8 NE 19 26 10 14 1011.6 1010.3 0.0
14/09:00pm 25.6 22.7 11.0 40 8.3 ENE 17 22 9 12 1011.1 1009.8 0.0
14/08:30pm 25.5 23.0 9.7 37 8.8 E 13 15 7 8 1010.7 1009.4 0.0
14/08:00pm 27.0 24.1 9.8 34 9.6 E 15 17 8 9 1010.5 1009.2 0.0
14/07:30pm 27.9 24.6 9.7 32 10.2 E 17 20 9 11 1010.3 1009.0 0.0
14/07:00pm 28.7 25.6 8.9 29 11.0 E 15 20 8 11 1010.0 1008.7 0.0
14/06:30pm 30.2 25.9 6.8 23 12.7 E 19 26 10 14 1009.6 1008.3 0.0
14/06:00pm 31.4 26.6 5.8 20 13.7 ENE 20 30 11 16 1009.1 1007.8 0.0
14/05:30pm 32.1 27.8 7.7 22 13.5 ENE 20 28 11 15 1008.7 1007.4 0.0
14/05:00pm 32.7 28.3 7.5 21 14.0 E 20 28 11 15 1008.3 1007.1 0.0
14/04:30pm 33.3 30.0 9.4 23 13.7 ENE 17 26 9 14 1008.2 1007.0 0.0
14/04:00pm 33.0 29.4 8.5 22 13.9 ENE 17 30 9 16 1008.3 1007.1 0.0
14/03:30pm 33.0 30.6 11.5 27 12.7 ENE 15 26 8 14 1008.5 1007.3 0.0
14/03:00pm 32.9 31.6 11.4 27 12.7 NE 9 15 5 8 1008.7 1007.4 0.0
14/02:30pm 33.0 31.3 12.6 29 12.3 E 13 22 7 12 1008.9 1007.6 0.0
14/02:00pm 32.5 30.9 12.7 30 11.9 SE 13 24 7 13 1009.2 1007.9 0.0
14/01:30pm 32.0 32.2 14.6 34 10.7 SE 7 15 4 8 1009.6 1008.3 0.0
14/01:00pm 31.5 30.1 13.3 33 11.0 ESE 13 24 7 13 1010.0 1008.7 0.0

Other Formats:

Comma delimited format used in spreadsheet applications
http://www.bom.gov.au/fwo/IDQ60801/IDQ60801.94398.axf

JavaScript Object Notation format (JSON) in row-major order
http://www.bom.gov.au/fwo/IDQ60801/IDQ60801.94398.json